Time;durP1;ratioP1;P1;durP2;ratioP2;P2;SDS_P1;SDS_P2;PMS_P1;PMS_P2;Temp;Humidity;BMP_temperature;BMP_pressure;BME280_temperature;BME280_humidity;BME280_pressure;Samples;Min_cycle;Max_cycle;Signal;HPM_P1;HPM_P2
2022/10/06 00:00:29;;;;;;;1.10;0.50;;;15.30;99.90;;;;;;5021121;28;20108;-48
2022/10/06 00:02:54;;;;;;;0.75;0.68;;;15.30;99.90;;;;;;5020151;28;20113;-48
2022/10/06 00:05:20;;;;;;;0.75;0.65;;;15.30;99.90;;;;;;5018711;28;20030;-45
2022/10/06 00:07:46;;;;;;;1.50;0.50;;;15.30;99.90;;;;;;5021424;28;20041;-45
2022/10/06 00:10:11;;;;;;;0.57;0.40;;;15.20;99.90;;;;;;5026075;28;20029;-47
2022/10/06 00:12:41;;;;;;;0.60;0.40;;;15.20;99.90;;;;;;5016886;28;20034;-47
2022/10/06 00:15:09;;;;;;;2.85;0.70;;;15.20;99.90;;;;;;5014634;28;20057;-50
2022/10/06 00:17:34;;;;;;;0.70;0.60;;;15.10;99.90;;;;;;5011418;28;20380;-46
2022/10/06 00:20:00;;;;;;;1.35;0.38;;;15.10;99.90;;;;;;5026070;28;20037;-44
2022/10/06 00:22:33;;;;;;;0.70;0.52;;;15.10;99.90;;;;;;5023829;28;20041;-45
2022/10/06 00:24:58;;;;;;;1.00;0.60;;;15.10;99.90;;;;;;5027251;28;20032;-44
2022/10/06 00:27:24;;;;;;;1.33;0.50;;;15.10;99.90;;;;;;5020016;28;20038;-48
2022/10/06 00:29:49;;;;;;;1.30;0.47;;;15.00;99.90;;;;;;5025322;28;20061;-46
2022/10/06 00:32:15;;;;;;;2.35;0.65;;;15.00;99.90;;;;;;5015034;28;20030;-45
2022/10/06 00:34:40;;;;;;;1.58;0.75;;;15.00;99.90;;;;;;5023417;28;20021;-45
2022/10/06 00:37:06;;;;;;;0.80;0.50;;;15.00;99.90;;;;;;5023518;28;20076;-50
2022/10/06 00:39:31;;;;;;;1.30;0.60;;;15.00;99.90;;;;;;5021168;28;20038;-47
2022/10/06 00:41:58;;;;;;;0.98;0.40;;;14.90;99.90;;;;;;5005801;28;20025;-45
2022/10/06 00:44:24;;;;;;;0.73;0.50;;;14.90;99.90;;;;;;5019585;28;20042;-45
2022/10/06 00:46:52;;;;;;;1.23;0.52;;;14.90;99.90;;;;;;5020613;28;20061;-45
2022/10/06 00:49:29;;;;;;;1.67;0.68;;;14.80;99.90;;;;;;5009914;28;20108;-45
2022/10/06 00:52:01;;;;;;;0.50;0.40;;;14.80;99.90;;;;;;5017053;28;20026;-46
2022/10/06 00:54:27;;;;;;;4.55;0.60;;;14.80;99.90;;;;;;5025811;28;20017;-49
2022/10/06 00:56:53;;;;;;;2.65;0.52;;;14.70;99.90;;;;;;5023128;28;20029;-49
2022/10/06 00:59:19;;;;;;;0.50;0.40;;;14.70;99.90;;;;;;5046902;22;20044;-85
2022/10/06 01:02:02;;;;;;;0.77;0.50;;;14.70;99.90;;;;;;5044129;28;20392;-84
2022/10/06 01:04:34;;;;;;;2.10;0.52;;;14.70;99.90;;;;;;5022775;28;20021;-86
2022/10/06 01:07:00;;;;;;;1.40;0.45;;;14.60;99.90;;;;;;5021372;28;20034;-85
2022/10/06 01:09:28;;;;;;;1.55;0.70;;;14.60;99.90;;;;;;5034394;28;20093;-85
2022/10/06 01:11:57;;;;;;;0.95;0.70;;;14.60;99.90;;;;;;5023745;28;20031;-87
2022/10/06 01:14:25;;;;;;;0.68;0.52;;;14.50;99.90;;;;;;5028312;28;20108;-84
2022/10/06 01:17:13;;;;;;;1.30;0.52;;;14.50;99.90;;;;;;5034466;28;20531;-88
2022/10/06 01:19:59;;;;;;;2.38;0.50;;;14.40;99.90;;;;;;5039937;28;20041;-86
2022/10/06 01:22:40;;;;;;;1.85;0.40;;;14.40;99.90;;;;;;5039285;28;20025;-83
2022/10/06 01:25:07;;;;;;;1.40;0.40;;;14.30;99.90;;;;;;5028732;28;20032;-85
2022/10/06 01:27:35;;;;;;;4.10;0.70;;;14.40;99.90;;;;;;5027776;28;20037;-84
2022/10/06 01:30:02;;;;;;;1.42;0.70;;;14.30;99.90;;;;;;5024613;28;20018;-85
2022/10/06 01:32:33;;;;;;;0.57;0.25;;;14.20;99.90;;;;;;5041464;28;20044;-84
2022/10/06 01:35:01;;;;;;;1.60;0.50;;;14.20;99.90;;;;;;5026003;28;20048;-84
2022/10/06 01:37:27;;;;;;;0.22;0.20;;;14.10;99.90;;;;;;5025056;28;20029;-83
2022/10/06 01:39:52;;;;;;;1.80;0.60;;;14.10;99.90;;;;;;5030848;28;20101;-83
2022/10/06 01:42:18;;;;;;;1.42;0.40;;;14.00;99.90;;;;;;5028890;28;20115;-85
2022/10/06 01:44:44;;;;;;;2.08;0.30;;;14.00;99.90;;;;;;5033533;28;20128;-85
2022/10/06 01:47:09;;;;;;;0.55;0.40;;;13.90;99.90;;;;;;5022005;28;20044;-86
2022/10/06 01:49:35;;;;;;;1.27;0.40;;;13.90;99.90;;;;;;5027184;28;20021;-86
2022/10/06 01:52:01;;;;;;;1.05;0.28;;;13.80;99.90;;;;;;5035913;28;20102;-85
2022/10/06 01:54:27;;;;;;;0.65;0.57;;;13.80;99.90;;;;;;5025153;28;20025;-84
2022/10/06 01:56:52;;;;;;;1.27;0.98;;;13.80;99.90;;;;;;5035755;28;20552;-84
2022/10/06 01:59:18;;;;;;;1.45;0.40;;;13.80;99.90;;;;;;5040044;28;20029;-86
2022/10/06 02:01:43;;;;;;;4.35;0.45;;;13.70;99.90;;;;;;5020869;28;20459;-84
2022/10/06 02:04:09;;;;;;;2.28;0.40;;;13.70;99.90;;;;;;5020557;28;20029;-84
2022/10/06 02:06:34;;;;;;;1.85;0.68;;;13.70;99.90;;;;;;5045627;28;20079;-85
2022/10/06 02:09:01;;;;;;;1.95;0.60;;;13.60;99.90;;;;;;5026329;28;20025;-85
2022/10/06 02:11:27;;;;;;;3.55;0.75;;;13.60;99.90;;;;;;5027796;28;20013;-85
2022/10/06 02:13:52;;;;;;;1.65;0.57;;;13.60;99.90;;;;;;5044327;28;20029;-85
2022/10/06 02:16:18;;;;;;;3.72;0.93;;;13.50;99.90;;;;;;5020787;28;20168;-86
2022/10/06 02:18:44;;;;;;;1.65;0.70;;;13.50;99.90;;;;;;5024453;28;20546;-85
2022/10/06 02:21:18;;;;;;;5.03;0.73;;;13.50;99.90;;;;;;5016043;28;20021;-86
2022/10/06 02:23:43;;;;;;;1.08;0.50;;;13.40;99.90;;;;;;5022860;28;20524;-84
2022/10/06 02:26:10;;;;;;;2.60;0.75;;;13.40;99.90;;;;;;5034802;28;20025;-84
2022/10/06 02:28:35;;;;;;;2.08;0.47;;;13.40;99.90;;;;;;5022023;28;20021;-85
2022/10/06 02:31:07;;;;;;;2.47;0.95;;;13.40;99.90;;;;;;5022266;28;20025;-84
2022/10/06 02:33:33;;;;;;;2.75;1.02;;;13.40;99.90;;;;;;5019645;28;20022;-84
2022/10/06 02:35:59;;;;;;;4.93;0.68;;;13.50;99.90;;;;;;5024773;28;20056;-85
2022/10/06 02:38:25;;;;;;;1.52;0.70;;;13.50;99.90;;;;;;5045541;28;20578;-85
2022/10/06 02:40:52;;;;;;;4.25;0.55;;;13.50;99.90;;;;;;5025677;28;20056;-85
2022/10/06 02:43:19;;;;;;;2.47;0.77;;;13.50;99.90;;;;;;5038133;28;20120;-85
2022/10/06 02:45:52;;;;;;;2.15;0.77;;;13.60;99.90;;;;;;5026979;28;20032;-85
2022/10/06 02:48:18;;;;;;;2.30;0.50;;;13.50;99.90;;;;;;5017448;28;20017;-86
2022/10/06 02:50:44;;;;;;;1.15;0.50;;;13.50;99.90;;;;;;5005894;28;20125;-85
2022/10/06 02:53:09;;;;;;;2.33;0.60;;;13.50;99.90;;;;;;5022395;28;20044;-85
2022/10/06 02:55:35;;;;;;;4.07;0.77;;;13.50;99.90;;;;;;5024426;28;20528;-86
2022/10/06 02:58:02;;;;;;;2.45;1.17;;;13.40;99.90;;;;;;5021772;28;20033;-85
2022/10/06 03:00:28;;;;;;;3.38;0.70;;;13.50;99.90;;;;;;5023647;28;20358;-85
2022/10/06 03:02:53;;;;;;;2.63;0.90;;;13.40;99.90;;;;;;5013976;28;20088;-85
2022/10/06 03:05:19;;;;;;;2.95;0.82;;;13.40;99.90;;;;;;5017941;28;20037;-85
2022/10/06 03:07:45;;;;;;;5.13;0.98;;;13.30;99.90;;;;;;5046584;28;20028;-86
2022/10/06 03:10:10;;;;;;;3.33;0.65;;;13.30;99.90;;;;;;5039473;28;20017;-85
2022/10/06 03:12:36;;;;;;;3.25;0.80;;;13.30;99.90;;;;;;5021289;28;20040;-85
2022/10/06 03:15:03;;;;;;;5.03;0.85;;;13.30;99.90;;;;;;5024840;28;20029;-84
2022/10/06 03:17:28;;;;;;;1.95;0.73;;;13.30;99.90;;;;;;5023013;28;20025;-84
2022/10/06 03:19:55;;;;;;;3.88;1.27;;;13.30;99.90;;;;;;5026231;28;20030;-85
2022/10/06 03:22:21;;;;;;;7.03;1.10;;;13.30;99.90;;;;;;5025797;28;20040;-85
2022/10/06 03:24:47;;;;;;;6.80;1.00;;;13.20;99.90;;;;;;5044055;28;20025;-83
2022/10/06 03:27:12;;;;;;;5.10;1.20;;;13.20;99.90;;;;;;5023006;28;20680;-84
2022/10/06 03:29:38;;;;;;;4.75;0.95;;;13.20;99.90;;;;;;5021538;28;20029;-84
2022/10/06 03:32:04;;;;;;;2.75;0.98;;;13.10;99.90;;;;;;5028153;28;20510;-84
2022/10/06 03:34:29;;;;;;;3.75;0.90;;;13.10;99.90;;;;;;5015461;28;20022;-85
2022/10/06 03:36:55;;;;;;;4.80;0.93;;;13.10;99.90;;;;;;5038474;28;20028;-84
2022/10/06 03:39:21;;;;;;;3.05;1.23;;;13.00;99.90;;;;;;5041863;28;20029;-85
2022/10/06 03:41:46;;;;;;;4.13;1.15;;;13.00;99.90;;;;;;5022504;28;20076;-85
2022/10/06 03:44:12;;;;;;;5.82;0.95;;;13.00;99.90;;;;;;5023846;28;20140;-85
2022/10/06 03:46:38;;;;;;;3.00;1.10;;;12.90;99.90;;;;;;5023437;28;20034;-86
2022/10/06 03:49:04;;;;;;;6.35;1.25;;;12.90;99.90;;;;;;5020282;28;20525;-85
2022/10/06 03:51:36;;;;;;;7.47;1.27;;;12.80;99.90;;;;;;5025278;28;20064;-85
2022/10/06 03:54:02;;;;;;;3.10;1.10;;;12.80;99.90;;;;;;5022691;28;20090;-85
2022/10/06 03:56:33;;;;;;;6.53;1.30;;;12.80;99.90;;;;;;5026058;28;20040;-84
2022/10/06 03:59:01;;;;;;;5.07;1.10;;;12.80;99.90;;;;;;5022491;28;20838;-86
2022/10/06 04:04:49;;;;;;;3.55;0.82;;;12.80;99.90;;;;;;5159052;22;20130;-51
2022/10/06 04:07:14;;;;;;;2.65;1.10;;;12.70;99.90;;;;;;5024034;28;20029;-52
2022/10/06 04:09:40;;;;;;;3.80;1.30;;;12.70;99.90;;;;;;5020240;28;20030;-48
2022/10/06 04:12:05;;;;;;;10.95;1.95;;;12.70;99.90;;;;;;5015194;28;20596;-49
2022/10/06 04:14:31;;;;;;;5.32;1.15;;;12.60;99.90;;;;;;5017629;28;20365;-51
2022/10/06 04:16:56;;;;;;;5.97;1.55;;;12.60;99.90;;;;;;5010303;28;20551;-51
2022/10/06 04:19:22;;;;;;;4.72;1.63;;;12.60;99.90;;;;;;5014961;28;20033;-50
2022/10/06 04:21:47;;;;;;;4.30;1.00;;;12.50;99.90;;;;;;5002035;28;20025;-51
2022/10/06 04:24:15;;;;;;;6.22;1.35;;;12.50;99.90;;;;;;5018635;28;20045;-52
2022/10/06 04:26:47;;;;;;;7.50;1.13;;;12.40;99.90;;;;;;5008820;28;20465;-50
2022/10/06 04:29:13;;;;;;;5.10;1.55;;;12.40;99.90;;;;;;5019706;28;20025;-51
2022/10/06 04:31:41;;;;;;;6.22;1.35;;;12.40;99.90;;;;;;5018405;28;20053;-52
2022/10/06 04:34:08;;;;;;;6.13;1.10;;;12.40;99.90;;;;;;5021398;28;20037;-50
2022/10/06 04:36:38;;;;;;;4.43;1.52;;;12.40;99.90;;;;;;5019947;28;20113;-48
2022/10/06 04:39:04;;;;;;;2.40;0.80;;;12.40;99.90;;;;;;5020589;28;20251;-48
2022/10/06 04:41:35;;;;;;;6.90;1.20;;;12.30;99.90;;;;;;5014672;28;20551;-50
2022/10/06 04:44:02;;;;;;;5.65;1.40;;;12.30;99.90;;;;;;5024411;28;20026;-51
2022/10/06 04:46:29;;;;;;;4.25;1.23;;;12.30;99.90;;;;;;5009777;28;20049;-49
2022/10/06 04:48:55;;;;;;;8.00;0.98;;;12.30;99.90;;;;;;5026218;28;20097;-49
2022/10/06 04:51:23;;;;;;;7.78;1.10;;;12.30;99.90;;;;;;5018893;28;20193;-48
2022/10/06 04:53:49;;;;;;;3.70;1.17;;;12.30;99.90;;;;;;5026282;28;20030;-52
2022/10/06 04:56:21;;;;;;;6.47;2.08;;;12.20;99.90;;;;;;5025099;28;20043;-52
2022/10/06 04:58:48;;;;;;;6.97;1.70;;;12.20;99.90;;;;;;5019944;28;20145;-51
2022/10/06 05:01:15;;;;;;;6.18;1.33;;;12.10;99.90;;;;;;5007588;28;20029;-51
2022/10/06 05:03:41;;;;;;;7.15;0.80;;;12.10;99.90;;;;;;5007142;28;20030;-48
2022/10/06 05:06:11;;;;;;;3.88;1.23;;;12.10;99.90;;;;;;5019917;28;20033;-48
2022/10/06 05:08:37;;;;;;;6.82;1.33;;;12.10;99.90;;;;;;5017552;28;20069;-53
2022/10/06 05:11:08;;;;;;;8.98;1.23;;;12.10;99.90;;;;;;5015978;28;20029;-51
2022/10/06 05:13:35;;;;;;;6.88;1.30;;;12.10;99.90;;;;;;5017100;28;20052;-49
2022/10/06 05:16:01;;;;;;;6.63;1.48;;;12.10;99.90;;;;;;5005124;28;20505;-48
2022/10/06 05:18:28;;;;;;;4.82;1.23;;;12.10;99.90;;;;;;5015757;28;20079;-48
2022/10/06 05:20:58;;;;;;;9.52;1.63;;;12.00;99.90;;;;;;5011382;28;20046;-49
2022/10/06 05:23:26;;;;;;;7.45;1.55;;;12.00;99.90;;;;;;5024804;28;20026;-48
2022/10/06 05:25:56;;;;;;;7.78;1.42;;;12.00;99.90;;;;;;5009734;28;20083;-48
2022/10/06 05:28:23;;;;;;;4.43;1.70;;;12.00;99.90;;;;;;5026695;28;20029;-50
2022/10/06 05:31:13;;;;;;;9.27;1.42;;;12.00;99.90;;;;;;4992709;28;20022;-53
2022/10/06 05:33:39;;;;;;;6.72;1.90;;;11.90;99.90;;;;;;5022358;28;20033;-58
2022/10/06 05:36:08;;;;;;;6.13;1.75;;;11.90;99.90;;;;;;5012822;28;20036;-51
2022/10/06 05:38:33;;;;;;;8.88;1.95;;;11.90;99.90;;;;;;5020043;28;20091;-51
2022/10/06 05:41:03;;;;;;;5.28;1.35;;;11.90;99.90;;;;;;5021473;28;20037;-52
2022/10/06 05:43:29;;;;;;;8.63;1.50;;;11.80;99.90;;;;;;5022761;28;20488;-49
2022/10/06 05:45:57;;;;;;;5.97;1.20;;;11.80;99.90;;;;;;5022093;28;20026;-50
2022/10/06 05:48:27;;;;;;;6.90;1.85;;;11.80;99.90;;;;;;5015915;28;20017;-49
2022/10/06 05:51:05;;;;;;;5.47;1.15;;;11.80;99.90;;;;;;5022432;28;20021;-49
2022/10/06 05:53:33;;;;;;;7.80;1.63;;;11.80;99.90;;;;;;5016768;28;20571;-49
2022/10/06 05:56:02;;;;;;;8.18;1.20;;;11.80;99.90;;;;;;5020797;28;20038;-49
2022/10/06 05:58:28;;;;;;;5.57;1.55;;;11.80;99.90;;;;;;5020209;28;20100;-50
2022/10/06 06:00:54;;;;;;;4.05;1.40;;;11.80;99.90;;;;;;5025867;28;20596;-53
2022/10/06 06:03:19;;;;;;;5.47;2.33;;;11.70;99.90;;;;;;5018687;28;20049;-49
2022/10/06 06:05:45;;;;;;;7.03;1.27;;;11.80;99.90;;;;;;5007659;28;20033;-49
2022/10/06 06:08:10;;;;;;;6.65;1.52;;;11.70;99.90;;;;;;5019336;28;20025;-51
2022/10/06 06:10:36;;;;;;;11.35;2.33;;;11.70;99.90;;;;;;5025150;28;20098;-53
2022/10/06 06:13:02;;;;;;;7.65;1.55;;;11.80;99.90;;;;;;5007271;28;20148;-50
2022/10/06 06:18:12;;;;;;;8.32;1.33;;;11.80;99.90;;;;;;5024991;28;20036;-51
2022/10/06 06:20:38;;;;;;;8.30;2.25;;;11.80;99.90;;;;;;5002696;28;20030;-49
2022/10/06 06:23:04;;;;;;;8.23;1.90;;;11.80;99.90;;;;;;5025502;28;20602;-49
2022/10/06 06:25:29;;;;;;;8.40;1.77;;;11.80;99.90;;;;;;5018627;28;20503;-50
2022/10/06 06:27:55;;;;;;;7.68;1.30;;;11.80;99.90;;;;;;5026611;28;20083;-51
2022/10/06 06:30:21;;;;;;;6.93;1.45;;;11.80;99.90;;;;;;5017024;28;20038;-51
2022/10/06 06:32:47;;;;;;;7.45;0.98;;;11.80;99.90;;;;;;5018647;28;20033;-51
2022/10/06 06:35:12;;;;;;;5.70;1.23;;;11.80;99.90;;;;;;5027548;28;20037;-49
2022/10/06 06:37:38;;;;;;;8.77;1.60;;;11.80;99.90;;;;;;5018782;28;20021;-48
2022/10/06 06:40:04;;;;;;;10.70;1.27;;;11.90;99.90;;;;;;5019951;28;20030;-48
2022/10/06 06:42:29;;;;;;;8.93;2.63;;;11.90;99.90;;;;;;5021602;28;20038;-53
2022/10/06 06:44:55;;;;;;;4.68;1.42;;;11.90;99.90;;;;;;5017756;28;20017;-54
2022/10/06 06:47:21;;;;;;;8.55;1.42;;;11.90;99.90;;;;;;5008844;28;20014;-50
2022/10/06 06:49:47;;;;;;;8.23;2.20;;;11.90;99.90;;;;;;5020635;28;20018;-51
2022/10/06 06:52:13;;;;;;;6.80;1.60;;;11.90;99.90;;;;;;5015244;28;20045;-50
2022/10/06 06:54:39;;;;;;;4.53;1.73;;;11.90;99.90;;;;;;5022079;28;20053;-50
2022/10/06 06:57:05;;;;;;;8.98;1.88;;;12.00;99.90;;;;;;5020271;28;20037;-51
2022/10/06 06:59:32;;;;;;;5.57;1.38;;;12.00;99.90;;;;;;5042009;22;20107;-47
2022/10/06 07:01:59;;;;;;;7.05;1.40;;;12.00;99.90;;;;;;5029912;28;20013;-46
2022/10/06 07:04:25;;;;;;;7.10;1.33;;;12.10;99.90;;;;;;5015190;28;20035;-47
2022/10/06 07:06:57;;;;;;;6.05;1.70;;;12.10;99.90;;;;;;5031705;28;20431;-48
2022/10/06 07:09:24;;;;;;;5.18;1.20;;;12.10;99.90;;;;;;5027223;28;20468;-45
2022/10/06 07:11:50;;;;;;;8.63;1.95;;;12.10;99.90;;;;;;5036623;28;20021;-46
2022/10/06 07:14:17;;;;;;;8.80;1.70;;;12.20;99.90;;;;;;5035168;28;20098;-51
2022/10/06 07:25:06;;;;;;;5.38;1.45;;;12.40;99.90;;;;;;5034364;28;20075;-49
2022/10/06 07:27:36;;;;;;;7.43;1.92;;;12.40;99.90;;;;;;5034065;28;20017;-47
2022/10/06 07:30:03;;;;;;;12.70;1.73;;;12.40;99.90;;;;;;5020532;28;20047;-51
2022/10/06 07:32:32;;;;;;;10.57;1.75;;;12.40;99.90;;;;;;5027812;28;20112;-49
2022/10/06 07:34:58;;;;;;;7.93;2.67;;;12.50;99.90;;;;;;5034132;28;20026;-51
2022/10/06 07:37:24;;;;;;;8.85;1.60;;;12.50;99.90;;;;;;5018636;28;20403;-47
2022/10/06 07:39:50;;;;;;;3.58;1.35;;;12.50;99.90;;;;;;5019249;28;20026;-46
2022/10/06 07:42:17;;;;;;;4.03;1.48;;;12.50;99.90;;;;;;5021631;28;20035;-46
2022/10/06 07:45:37;;;;;;;4.82;1.60;;;12.60;99.90;;;;;;5021097;28;20091;-46
2022/10/06 07:47:31;;;;;;;12.10;1.88;;;12.60;99.90;;;;;;5017933;28;20028;-46
2022/10/06 07:49:57;;;;;;;8.77;1.60;;;12.70;99.90;;;;;;5038672;28;20032;-46
2022/10/06 07:52:23;;;;;;;7.78;1.63;;;12.80;99.90;;;;;;5037637;28;20024;-45
2022/10/06 07:54:49;;;;;;;6.68;1.98;;;12.90;99.90;;;;;;5039508;28;20480;-50
2022/10/06 07:57:15;;;;;;;6.78;1.58;;;12.90;99.90;;;;;;5039208;28;20040;-50
2022/10/06 07:59:40;;;;;;;5.47;1.70;;;13.00;99.90;;;;;;5038634;28;20033;-50
2022/10/06 08:02:06;;;;;;;11.07;1.48;;;13.00;99.90;;;;;;5035974;28;20052;-49
2022/10/06 08:04:32;;;;;;;8.27;1.55;;;13.10;99.90;;;;;;5037244;28;20017;-47
2022/10/06 08:06:57;;;;;;;8.70;1.58;;;13.20;99.90;;;;;;5034385;28;20103;-45
2022/10/06 08:09:23;;;;;;;3.25;1.20;;;13.20;99.90;;;;;;5044523;28;20029;-48
2022/10/06 08:11:48;;;;;;;6.88;1.80;;;13.30;99.90;;;;;;5042976;28;20480;-47
2022/10/06 08:14:14;;;;;;;11.25;2.08;;;13.40;99.90;;;;;;5020002;28;20479;-50
2022/10/06 08:16:39;;;;;;;7.50;1.58;;;13.50;99.90;;;;;;5021070;28;20116;-46
2022/10/06 08:19:05;;;;;;;8.45;1.65;;;13.50;99.90;;;;;;5040400;28;20084;-47
2022/10/06 08:21:35;;;;;;;6.88;1.35;;;13.70;99.90;;;;;;5031396;28;20044;-46
2022/10/06 08:24:01;;;;;;;8.68;1.30;;;13.70;99.90;;;;;;5027688;28;20115;-47
2022/10/06 08:26:28;;;;;;;11.95;2.00;;;13.80;99.90;;;;;;5039508;28;20049;-47
2022/10/06 08:29:01;;;;;;;11.95;1.90;;;13.90;99.90;;;;;;5040716;28;20056;-47
2022/10/06 08:31:28;;;;;;;11.57;1.92;;;13.90;99.90;;;;;;5039719;28;20036;-49
2022/10/06 08:33:55;;;;;;;6.47;1.77;;;13.90;99.90;;;;;;5041422;28;20033;-47
2022/10/06 08:36:22;;;;;;;6.65;2.20;;;14.00;99.90;;;;;;5039583;28;20033;-49
2022/10/06 08:38:51;;;;;;;6.45;1.88;;;14.00;99.90;;;;;;5043610;28;20025;-48
2022/10/06 08:41:39;;;;;;;10.05;1.80;;;14.00;99.90;;;;;;5039384;28;20053;-47
2022/10/06 08:44:30;;;;;;;6.60;1.58;;;14.10;99.90;;;;;;5045620;28;20480;-46
2022/10/06 08:47:11;;;;;;;10.65;1.70;;;14.10;99.90;;;;;;5038952;28;20022;-45
2022/10/06 08:49:43;;;;;;;6.35;2.28;;;14.20;99.90;;;;;;5025341;28;20470;-48
2022/10/06 08:52:45;;;;;;;7.53;1.50;;;14.30;99.90;;;;;;5042517;28;20365;-47
2022/10/06 08:55:50;;;;;;;7.65;1.88;;;14.30;99.90;;;;;;5042986;28;20025;-47
2022/10/06 08:59:04;;;;;;;7.18;1.38;;;14.30;99.90;;;;;;4999443;28;20057;-51
2022/10/06 09:01:34;;;;;;;5.28;2.00;;;14.30;99.90;;;;;;5024439;28;20123;-48
2022/10/06 09:04:06;;;;;;;6.18;1.77;;;14.30;99.90;;;;;;5034188;28;20099;-46
2022/10/06 09:06:40;;;;;;;7.20;1.42;;;14.30;99.90;;;;;;5044418;28;20051;-53
2022/10/06 09:09:24;;;;;;;11.60;2.05;;;14.40;99.90;;;;;;5041775;28;20026;-46
2022/10/06 09:11:55;;;;;;;7.72;2.13;;;14.50;99.90;;;;;;5022406;28;20026;-48
2022/10/06 09:14:36;;;;;;;7.25;2.00;;;14.50;99.90;;;;;;5043160;28;20567;-48
2022/10/06 09:17:06;;;;;;;11.88;1.98;;;14.60;99.90;;;;;;5034880;28;20033;-48
2022/10/06 09:20:08;;;;;;;7.97;1.48;;;14.60;99.90;;;;;;5042241;28;20105;-50
2022/10/06 09:22:34;;;;;;;7.43;1.40;;;14.60;99.90;;;;;;5033405;28;20068;-47
2022/10/06 09:25:18;;;;;;;11.30;2.15;;;14.50;99.90;;;;;;5022832;28;20017;-47
2022/10/06 09:27:49;;;;;;;7.75;1.83;;;14.50;99.90;;;;;;5040028;28;20395;-51
2022/10/06 09:30:15;;;;;;;10.75;1.98;;;14.40;99.90;;;;;;5016286;28;20550;-47
2022/10/06 09:33:11;;;;;;;9.10;1.88;;;14.40;99.90;;;;;;5037331;28;20037;-48
2022/10/06 09:36:11;;;;;;;10.50;2.20;;;14.40;99.90;;;;;;5032763;28;20041;-48
2022/10/06 09:38:52;;;;;;;4.25;1.88;;;14.50;99.90;;;;;;5003930;28;20800;-49
2022/10/06 09:41:21;;;;;;;7.55;2.28;;;14.50;99.90;;;;;;5030904;28;20081;-46
2022/10/06 09:43:54;;;;;;;7.38;1.70;;;14.60;99.90;;;;;;5041411;28;20033;-48
2022/10/06 09:46:33;;;;;;;6.78;1.30;;;14.70;99.90;;;;;;5030868;28;20534;-45
2022/10/06 09:49:23;;;;;;;5.07;1.55;;;14.70;99.90;;;;;;5026095;28;20121;-46
2022/10/06 09:52:01;;;;;;;10.02;1.77;;;14.80;99.90;;;;;;5035767;28;20577;-49
2022/10/06 09:54:28;;;;;;;7.25;1.95;;;14.80;99.90;;;;;;5044777;28;20025;-52
2022/10/06 09:56:55;;;;;;;8.20;2.42;;;14.80;99.90;;;;;;5039565;28;20052;-45
2022/10/06 09:59:34;;;;;;;5.95;1.35;;;14.80;99.90;;;;;;5042482;28;20411;-48
2022/10/06 10:02:03;;;;;;;3.38;0.95;;;14.90;99.90;;;;;;5038268;28;20125;-51
2022/10/06 10:04:31;;;;;;;10.50;2.10;;;14.90;99.90;;;;;;5041797;28;20028;-48
2022/10/06 10:07:24;;;;;;;6.20;1.60;;;14.90;99.90;;;;;;5023114;28;20047;-50
2022/10/06 10:09:52;;;;;;;10.18;2.20;;;15.00;99.90;;;;;;5023887;28;20033;-46
2022/10/06 10:12:29;;;;;;;9.07;1.73;;;15.00;99.90;;;;;;5024257;28;20052;-50
2022/10/06 10:15:17;;;;;;;4.72;1.88;;;15.00;99.90;;;;;;5041347;28;20025;-48
2022/10/06 10:17:51;;;;;;;5.55;1.52;;;15.10;99.90;;;;;;5043768;28;20428;-49
2022/10/06 10:20:28;;;;;;;8.95;1.80;;;15.10;99.90;;;;;;5035269;28;20035;-50
2022/10/06 10:22:57;;;;;;;5.40;2.00;;;15.10;99.90;;;;;;5045688;28;20391;-48
2022/10/06 10:25:50;;;;;;;9.48;1.88;;;15.20;99.90;;;;;;5038727;28;20045;-46
2022/10/06 10:28:33;;;;;;;3.95;1.38;;;15.20;99.90;;;;;;5031246;28;20484;-47
2022/10/06 10:31:22;;;;;;;7.40;2.40;;;15.30;99.90;;;;;;5037299;28;20552;-48
2022/10/06 10:33:56;;;;;;;9.32;1.92;;;15.40;99.90;;;;;;5021977;28;20063;-46
2022/10/06 10:36:35;;;;;;;9.07;1.98;;;15.50;99.90;;;;;;5030803;28;20445;-46
2022/10/06 10:39:03;;;;;;;7.15;1.77;;;15.60;99.90;;;;;;5040601;28;20033;-46
2022/10/06 10:41:36;;;;;;;9.93;2.03;;;15.50;99.90;;;;;;5019985;28;20057;-48
2022/10/06 10:44:13;;;;;;;8.48;2.22;;;15.50;99.90;;;;;;5039592;28;20029;-48
2022/10/06 10:46:47;;;;;;;13.95;2.45;;;15.50;99.90;;;;;;5037242;28;20022;-48
2022/10/06 10:49:18;;;;;;;6.78;1.98;;;15.50;99.90;;;;;;5045164;28;20023;-48
2022/10/06 10:52:06;;;;;;;8.13;1.42;;;15.60;99.90;;;;;;5039441;28;20395;-46
2022/10/06 10:54:55;;;;;;;9.98;2.28;;;15.60;99.90;;;;;;5032681;28;20101;-49
2022/10/06 10:57:29;;;;;;;5.63;1.25;;;15.70;99.90;;;;;;5025836;28;20120;-46
2022/10/06 10:59:59;;;;;;;8.57;1.80;;;15.80;99.90;;;;;;5035622;28;20116;-50
2022/10/06 11:02:27;;;;;;;6.45;1.77;;;15.90;99.90;;;;;;5041425;28;20479;-49
2022/10/06 11:05:02;;;;;;;10.93;1.88;;;15.90;99.90;;;;;;5017801;28;20036;-45
2022/10/06 11:08:06;;;;;;;6.20;1.42;;;15.90;99.90;;;;;;5041270;28;20013;-46
2022/10/06 11:10:42;;;;;;;6.60;1.33;;;15.80;99.90;;;;;;5032130;28;20118;-47
2022/10/06 11:13:32;;;;;;;5.03;1.08;;;15.70;99.90;;;;;;5037518;28;20029;-47
2022/10/06 11:16:03;;;;;;;9.85;1.90;;;15.60;99.90;;;;;;5036961;28;20503;-46
2022/10/06 11:18:48;;;;;;;7.47;1.67;;;15.60;99.90;;;;;;5041245;28;20093;-47
2022/10/06 11:21:33;;;;;;;4.80;1.58;;;15.70;99.90;;;;;;5037280;28;20036;-47
2022/10/06 11:24:17;;;;;;;4.78;1.50;;;15.80;99.90;;;;;;5037163;28;20035;-45
2022/10/06 11:27:05;;;;;;;6.72;1.48;;;15.90;99.90;;;;;;5040117;28;20372;-45
2022/10/06 11:29:41;;;;;;;9.63;1.42;;;16.00;99.90;;;;;;5042062;28;20387;-47
2022/10/06 11:32:11;;;;;;;4.05;1.02;;;16.00;99.90;;;;;;5019076;28;20021;-45
2022/10/06 11:34:39;;;;;;;4.70;1.23;;;16.00;99.90;;;;;;5020945;28;20421;-49
2022/10/06 11:37:21;;;;;;;6.93;1.02;;;15.90;99.90;;;;;;5037965;28;20497;-48
2022/10/06 11:39:58;;;;;;;3.55;0.90;;;15.90;99.90;;;;;;5034850;28;20048;-46
2022/10/06 11:42:49;;;;;;;5.93;1.15;;;16.00;99.90;;;;;;5029166;28;20107;-46
2022/10/06 11:45:18;;;;;;;2.30;1.02;;;16.00;99.90;;;;;;5040137;28;20487;-46
2022/10/06 11:48:05;;;;;;;6.93;1.58;;;16.10;99.90;;;;;;5035583;28;20514;-46
2022/10/06 11:50:35;;;;;;;2.45;1.23;;;16.10;99.90;;;;;;5034119;28;20100;-46
2022/10/06 11:53:01;;;;;;;4.20;1.40;;;16.10;99.90;;;;;;5039862;28;20021;-50
2022/10/06 11:55:27;;;;;;;6.78;2.00;;;16.20;99.90;;;;;;5040229;28;20021;-48
2022/10/06 11:58:15;;;;;;;4.03;1.38;;;16.20;99.90;;;;;;5032211;28;20129;-47
2022/10/06 12:00:43;;;;;;;7.93;1.85;;;16.10;99.90;;;;;;5036531;28;20396;-49
2022/10/06 12:03:27;;;;;;;5.80;1.70;;;16.00;99.90;;;;;;5030194;28;20399;-46
2022/10/06 12:05:54;;;;;;;4.97;1.35;;;15.90;99.90;;;;;;5043200;28;20389;-46
2022/10/06 12:08:34;;;;;;;8.43;2.17;;;15.80;99.90;;;;;;5031864;28;20025;-45
2022/10/06 12:11:00;;;;;;;4.43;1.58;;;15.70;99.90;;;;;;5026927;28;20491;-48
2022/10/06 12:13:43;;;;;;;13.73;2.55;;;15.80;99.90;;;;;;5031689;28;20060;-45
2022/10/06 12:16:17;;;;;;;5.53;1.48;;;15.90;99.90;;;;;;5021865;28;20025;-46
2022/10/06 12:18:46;;;;;;;11.70;1.80;;;15.90;99.90;;;;;;5034620;28;20033;-45
2022/10/06 12:21:36;;;;;;;6.82;1.65;;;16.00;99.90;;;;;;5039949;28;20036;-46
2022/10/06 12:24:23;;;;;;;10.25;1.58;;;16.10;99.90;;;;;;5035051;28;20037;-47
2022/10/06 12:27:08;;;;;;;9.23;1.80;;;16.20;99.90;;;;;;5015918;28;20159;-46
2022/10/06 12:29:50;;;;;;;11.40;1.48;;;16.20;99.90;;;;;;5040862;28;20033;-47
2022/10/06 12:32:48;;;;;;;5.75;1.27;;;16.20;99.90;;;;;;5010567;28;20553;-50
2022/10/06 12:35:23;;;;;;;3.60;1.35;;;16.40;99.90;;;;;;5043049;28;20061;-47
2022/10/06 12:37:51;;;;;;;6.53;1.23;;;16.30;99.90;;;;;;5014920;28;20105;-47
2022/10/06 12:40:48;;;;;;;4.07;0.90;;;16.40;99.90;;;;;;5039452;28;20100;-47
2022/10/06 12:43:17;;;;;;;2.53;1.10;;;16.40;99.90;;;;;;5019896;28;20151;-46
2022/10/06 12:46:14;;;;;;;6.80;1.13;;;16.40;99.90;;;;;;5021987;28;20025;-48
2022/10/06 12:49:02;;;;;;;;;;;16.50;99.90;;;;;;5040550;28;20119;-46
2022/10/06 12:51:45;;;;;;;5.07;1.20;;;16.50;99.90;;;;;;5015747;28;19905;-45
2022/10/06 12:54:19;;;;;;;4.43;0.98;;;16.40;99.90;;;;;;5039114;28;20033;-45
2022/10/06 12:56:58;;;;;;;4.38;1.10;;;16.40;99.90;;;;;;5039083;28;20091;-50
2022/10/06 12:59:31;;;;;;;3.97;1.60;;;16.40;99.90;;;;;;5045127;22;20071;-54
2022/10/06 13:02:16;;;;;;;5.13;1.60;;;16.30;99.90;;;;;;5012507;28;20035;-50
2022/10/06 13:04:52;;;;;;;5.82;1.10;;;16.30;99.90;;;;;;5018101;28;20065;-50
2022/10/06 13:07:19;;;;;;;;;;;16.40;99.90;;;;;;5012083;28;20014;-50
2022/10/06 13:09:47;;;;;;;1.80;0.88;;;16.40;99.90;;;;;;5016958;28;20164;-53
2022/10/06 13:12:18;;;;;;;5.55;1.30;;;16.40;99.90;;;;;;5002995;28;20444;-51
2022/10/06 13:14:45;;;;;;;4.88;1.08;;;16.40;99.90;;;;;;5003197;28;20026;-52
2022/10/06 13:17:11;;;;;;;7.05;1.40;;;16.30;99.90;;;;;;5001542;28;20480;-53
2022/10/06 13:19:40;;;;;;;3.80;1.35;;;16.30;99.90;;;;;;5003394;28;20030;-52